createdAt,value
2018-05-12T00:01:50.486Z,47.68
2018-05-12T00:04:16.467Z,47.70
2018-05-12T00:06:42.490Z,47.71
2018-05-12T00:09:08.439Z,47.67
2018-05-12T00:11:34.448Z,47.56
2018-05-12T00:14:00.538Z,47.56
2018-05-12T00:16:26.510Z,47.52
2018-05-12T00:18:52.500Z,47.54
2018-05-12T00:21:18.485Z,47.59
2018-05-12T00:23:44.503Z,47.51
2018-05-12T00:26:10.487Z,47.53
2018-05-12T00:28:36.432Z,47.40
2018-05-12T00:31:02.407Z,47.50
2018-05-12T00:33:28.390Z,47.49
2018-05-12T00:35:54.403Z,47.45
2018-05-12T00:38:20.352Z,47.43
2018-05-12T00:40:46.335Z,47.46
2018-05-12T00:43:12.318Z,47.49
2018-05-12T00:45:38.302Z,47.43
2018-05-12T00:48:04.281Z,47.46
2018-05-12T00:50:30.277Z,47.39
2018-05-12T00:52:56.256Z,47.37
2018-05-12T00:55:22.238Z,47.35
2018-05-12T00:57:48.280Z,47.28
2018-05-12T01:00:14.230Z,47.25
2018-05-12T01:02:40.201Z,47.35
2018-05-12T01:05:06.185Z,47.37
2018-05-12T01:07:32.182Z,47.34
2018-05-12T01:09:58.188Z,47.37
2018-05-12T01:12:24.188Z,47.33
2018-05-12T01:14:50.197Z,47.34
2018-05-12T01:17:16.170Z,47.28
2018-05-12T01:19:42.129Z,47.14
2018-05-12T01:22:08.148Z,47.24
2018-05-12T01:24:34.136Z,47.15
2018-05-12T01:27:00.123Z,47.29
2018-05-12T01:29:26.101Z,47.28
2018-05-12T01:31:52.091Z,47.23
2018-05-12T01:34:18.067Z,47.23
2018-05-12T01:36:44.086Z,47.25
2018-05-12T01:39:10.073Z,47.20
2018-05-12T01:41:36.056Z,47.26
2018-05-12T01:44:02.018Z,47.19
2018-05-12T01:46:28.019Z,46.93
2018-05-12T01:48:53.996Z,47.22
2018-05-12T01:51:20.009Z,47.20
2018-05-12T01:53:45.949Z,47.23
2018-05-12T01:56:11.928Z,47.26
2018-05-12T01:58:37.913Z,47.06
2018-05-12T02:01:03.890Z,47.12
2018-05-12T02:03:29.906Z,47.19
2018-05-12T02:05:55.883Z,47.21
2018-05-12T02:08:21.892Z,47.21
2018-05-12T02:10:47.864Z,47.22
2018-05-12T02:13:13.850Z,47.19
2018-05-12T02:15:39.796Z,47.01
2018-05-12T02:18:05.781Z,47.11
2018-05-12T02:20:31.758Z,47.09
2018-05-12T02:22:57.739Z,47.09
2018-05-12T02:25:23.734Z,47.04
2018-05-12T02:27:49.748Z,47.17
2018-05-12T02:30:15.761Z,47.09
2018-05-12T02:32:41.734Z,47.13
2018-05-12T02:35:07.692Z,47.05
2018-05-12T02:37:33.683Z,47.10
2018-05-12T02:39:59.699Z,47.15
2018-05-12T02:42:25.687Z,47.07
2018-05-12T02:44:51.656Z,47.15
2018-05-12T02:47:17.667Z,47.00
2018-05-12T02:49:43.619Z,47.00
2018-05-12T02:52:09.640Z,47.00
2018-05-12T02:54:35.590Z,46.97
2018-05-12T02:57:01.572Z,46.91
2018-05-12T02:59:27.573Z,46.88
2018-05-12T03:01:53.584Z,46.97
2018-05-12T03:04:19.573Z,46.92
2018-05-12T03:06:45.558Z,47.00
2018-05-12T03:09:11.648Z,46.92
2018-05-12T03:11:37.610Z,46.82
2018-05-12T03:14:03.622Z,46.90
2018-05-12T03:16:29.580Z,46.83
2018-05-12T03:18:55.583Z,46.90
2018-05-12T03:21:21.589Z,46.89
2018-05-12T03:23:47.571Z,46.82
2018-05-12T03:26:13.526Z,46.85
2018-05-12T03:28:39.499Z,46.92
2018-05-12T03:31:05.494Z,46.95
2018-05-12T03:33:31.484Z,46.80
2018-05-12T03:35:57.478Z,46.88
2018-05-12T03:38:23.459Z,46.86
2018-05-12T03:40:49.472Z,46.82
2018-05-12T03:43:15.422Z,46.79
2018-05-12T03:45:41.429Z,46.79
2018-05-12T03:48:07.390Z,46.83
2018-05-12T03:50:33.381Z,46.81
2018-05-12T03:52:59.389Z,46.93
2018-05-12T03:55:25.339Z,46.85
2018-05-12T03:57:51.387Z,46.84
2018-05-12T04:00:17.378Z,46.84
2018-05-12T04:02:43.400Z,46.82
2018-05-12T04:05:09.339Z,46.74
2018-05-12T04:07:35.321Z,46.78
2018-05-12T04:10:01.304Z,46.85
2018-05-12T04:12:27.295Z,46.81
2018-05-12T04:14:53.277Z,46.73
2018-05-12T04:17:19.292Z,46.81
2018-05-12T04:19:45.243Z,46.70
2018-05-12T04:22:11.224Z,46.74
2018-05-12T04:24:37.204Z,46.83
2018-05-12T04:27:03.178Z,46.77
2018-05-12T04:29:29.164Z,46.78
2018-05-12T04:31:55.176Z,46.79
2018-05-12T04:34:21.164Z,46.81
2018-05-12T04:36:47.112Z,46.51
2018-05-12T04:39:13.116Z,46.75
2018-05-12T04:41:39.091Z,46.76
2018-05-12T04:44:05.070Z,46.53
2018-05-12T04:46:31.115Z,46.64
2018-05-12T04:48:57.103Z,46.73
2018-05-12T04:51:23.079Z,46.72
2018-05-12T04:53:49.098Z,46.58
2018-05-12T04:56:15.088Z,46.72
2018-05-12T04:58:41.132Z,46.68
2018-05-12T05:01:07.126Z,46.75
2018-05-12T05:03:33.083Z,46.77
2018-05-12T05:05:59.068Z,46.70
2018-05-12T05:08:25.054Z,46.73
2018-05-12T05:10:51.068Z,46.62
2018-05-12T05:13:17.061Z,46.67
2018-05-12T05:15:43.030Z,46.73
2018-05-12T05:18:09.011Z,46.67
2018-05-12T05:20:34.993Z,46.75
2018-05-12T05:23:00.975Z,46.61
2018-05-12T05:25:26.967Z,46.61
2018-05-12T05:27:52.976Z,46.64
2018-05-12T05:30:18.934Z,46.58
2018-05-12T05:32:44.947Z,46.62
2018-05-12T05:35:10.929Z,46.64
2018-05-12T05:37:36.890Z,46.62
2018-05-12T05:40:02.901Z,46.53
2018-05-12T05:42:28.879Z,46.67
2018-05-12T05:44:54.894Z,46.62
2018-05-12T05:47:20.954Z,46.55
2018-05-12T05:49:46.852Z,46.52
2018-05-12T05:52:12.860Z,46.61
2018-05-12T05:54:38.815Z,46.63
2018-05-12T05:57:04.825Z,46.60
2018-05-12T05:59:30.849Z,46.62
2018-05-12T06:01:56.828Z,46.66
2018-05-12T06:04:22.875Z,46.56
2018-05-12T06:06:48.937Z,46.61
2018-05-12T06:09:14.913Z,46.61
2018-05-12T06:11:41.165Z,46.66
2018-05-12T06:14:07.130Z,46.71
2018-05-12T06:16:33.728Z,46.71
2018-05-12T06:19:00.124Z,46.74
2018-05-12T06:21:26.156Z,46.75
2018-05-12T06:23:52.219Z,46.81
2018-05-12T06:26:18.208Z,46.81
2018-05-12T06:28:44.227Z,46.82
2018-05-12T06:31:10.403Z,46.66
2018-05-12T06:33:36.398Z,46.76
2018-05-12T06:36:02.370Z,46.75
2018-05-12T06:38:28.344Z,46.90
2018-05-12T06:40:54.350Z,47.02
2018-05-12T06:43:20.327Z,47.08
2018-05-12T06:45:46.369Z,47.13
2018-05-12T06:48:12.359Z,47.05
2018-05-12T06:50:38.837Z,46.94
2018-05-12T06:53:04.872Z,46.96
2018-05-12T06:55:30.846Z,46.99
2018-05-12T06:57:56.863Z,47.01
2018-05-12T07:00:22.856Z,47.27
2018-05-12T07:02:48.860Z,47.53
2018-05-12T07:05:14.866Z,47.63
2018-05-12T07:07:40.887Z,47.46
2018-05-12T07:10:06.841Z,47.61
2018-05-12T07:12:32.833Z,47.60
2018-05-12T07:14:58.822Z,47.81
2018-05-12T07:17:24.840Z,47.88
2018-05-12T07:19:50.837Z,48.07
2018-05-12T07:22:16.821Z,48.05
2018-05-12T07:24:42.812Z,48.36
2018-05-12T07:27:08.835Z,48.34
2018-05-12T07:29:34.806Z,48.47
2018-05-12T07:32:00.802Z,48.30
2018-05-12T07:34:26.751Z,48.59
2018-05-12T07:36:52.736Z,48.68
2018-05-12T07:39:19.285Z,48.72
2018-05-12T07:41:45.273Z,48.50
2018-05-12T07:44:11.291Z,48.36
2018-05-12T07:46:37.271Z,48.40
2018-05-12T07:49:03.255Z,48.85
2018-05-12T07:51:29.363Z,48.54
2018-05-12T07:53:55.407Z,48.43
2018-05-12T07:56:21.400Z,48.63
2018-05-12T07:58:47.554Z,48.56
2018-05-12T08:03:57.307Z,48.56
2018-05-12T08:06:23.298Z,48.75
2018-05-12T08:08:49.283Z,48.83
2018-05-12T08:11:15.277Z,48.78
2018-05-12T08:13:41.263Z,48.92
2018-05-12T08:16:07.281Z,48.87
2018-05-12T08:18:33.218Z,48.80
2018-05-12T08:20:59.409Z,49.00
2018-05-12T08:23:25.585Z,48.92
2018-05-12T08:25:51.568Z,48.87
2018-05-12T08:28:17.818Z,48.47
2018-05-12T08:30:43.826Z,48.67
2018-05-12T08:33:09.806Z,48.41
2018-05-12T08:35:35.902Z,48.69
2018-05-12T08:38:01.906Z,48.52
2018-05-12T08:40:28.012Z,48.57
2018-05-12T08:42:53.870Z,48.41
2018-05-12T08:45:19.857Z,48.55
2018-05-12T08:47:45.864Z,48.42
2018-05-12T08:50:11.823Z,48.45
2018-05-12T08:52:37.807Z,48.66
2018-05-12T08:55:03.786Z,48.58
2018-05-12T08:57:29.809Z,48.61
2018-05-12T08:59:55.807Z,48.52
2018-05-12T09:02:21.785Z,48.84
2018-05-12T09:04:47.779Z,48.99
2018-05-12T09:07:13.860Z,48.66
2018-05-12T09:09:39.789Z,48.86
2018-05-12T09:12:05.769Z,49.23
2018-05-12T09:14:31.802Z,49.30
2018-05-12T09:16:57.828Z,49.35
2018-05-12T09:19:24.175Z,49.61
2018-05-12T09:21:50.513Z,49.82
2018-05-12T09:24:16.500Z,49.73
2018-05-12T09:26:42.599Z,49.67
2018-05-12T09:29:08.622Z,49.77
2018-05-12T09:31:34.594Z,49.55
2018-05-12T09:34:00.583Z,49.99
2018-05-12T09:36:26.568Z,49.90
2018-05-12T09:38:52.588Z,50.06
2018-05-12T09:41:18.532Z,50.26
2018-05-12T09:43:44.560Z,50.05
2018-05-12T09:46:10.573Z,50.00
2018-05-12T09:48:37.065Z,50.16
2018-05-12T09:51:03.015Z,49.87
2018-05-12T09:53:28.993Z,50.05
2018-05-12T09:55:54.978Z,49.94
2018-05-12T09:58:21.010Z,50.06
2018-05-12T10:00:46.999Z,50.08
2018-05-12T10:03:12.988Z,49.98
2018-05-12T10:05:38.964Z,50.12
2018-05-12T10:08:05.014Z,49.99
2018-05-12T10:10:31.000Z,50.25
2018-05-12T10:12:56.968Z,50.15
2018-05-12T10:15:22.938Z,49.92
2018-05-12T10:17:48.947Z,50.06
2018-05-12T10:20:14.976Z,50.07
2018-05-12T10:22:40.981Z,49.77
2018-05-12T10:25:07.006Z,50.23
2018-05-12T10:27:32.991Z,50.34
2018-05-12T10:29:58.998Z,49.92
2018-05-12T10:32:24.957Z,49.95
2018-05-12T10:34:50.983Z,49.69
2018-05-12T10:37:16.943Z,50.19
2018-05-12T10:39:42.982Z,50.01
2018-05-12T10:42:08.996Z,50.14
2018-05-12T10:44:34.981Z,50.15
2018-05-12T10:47:01.153Z,50.05
2018-05-12T10:49:27.144Z,49.96
2018-05-12T10:51:53.100Z,49.59
2018-05-12T10:54:19.116Z,49.48
2018-05-12T10:56:45.103Z,49.98
2018-05-12T10:59:11.131Z,49.89
2018-05-12T11:01:37.119Z,49.85
2018-05-12T11:04:03.154Z,49.61
2018-05-12T11:06:29.116Z,50.27
2018-05-12T11:08:55.110Z,50.29
2018-05-12T11:11:21.095Z,50.29
2018-05-12T11:13:47.080Z,50.28
2018-05-12T11:16:13.196Z,50.03
2018-05-12T11:18:39.088Z,49.69
2018-05-12T11:21:05.044Z,49.49
2018-05-12T11:23:31.067Z,50.14
2018-05-12T11:25:57.058Z,50.09
2018-05-12T11:28:23.048Z,49.78
2018-05-12T11:30:49.042Z,49.89
2018-05-12T11:33:17.285Z,50.03
2018-05-12T11:35:43.299Z,50.17
2018-05-12T11:38:09.264Z,49.97
2018-05-12T11:40:35.296Z,49.53
2018-05-12T11:43:01.264Z,49.38
2018-05-12T11:45:27.288Z,49.62
2018-05-12T11:47:53.359Z,49.56
2018-05-12T11:50:19.364Z,49.45
2018-05-12T11:52:45.312Z,49.36
2018-05-12T11:55:11.304Z,49.40
2018-05-12T11:57:37.297Z,49.32
2018-05-12T12:00:04.202Z,49.28
2018-05-12T12:02:30.259Z,49.11
2018-05-12T12:04:56.155Z,49.31
2018-05-12T12:07:22.138Z,49.27
2018-05-12T12:09:48.121Z,49.18
2018-05-12T12:12:14.139Z,49.28
2018-05-12T12:14:40.098Z,49.23
2018-05-12T12:17:06.082Z,49.25
2018-05-12T12:19:32.064Z,49.43
2018-05-12T12:21:58.081Z,49.34
2018-05-12T12:24:24.094Z,49.84
2018-05-12T12:26:50.044Z,50.32
2018-05-12T12:29:16.033Z,50.68
2018-05-12T12:31:42.016Z,50.98
2018-05-12T12:34:08.080Z,50.60
2018-05-12T12:36:34.131Z,51.23
2018-05-12T12:39:00.158Z,51.20
2018-05-12T12:41:26.148Z,50.61
2018-05-12T12:43:52.154Z,50.90
2018-05-12T12:46:18.117Z,51.01
2018-05-12T12:48:44.085Z,50.96
2018-05-12T12:51:10.097Z,50.85
2018-05-12T12:53:36.327Z,51.00
2018-05-12T12:56:02.364Z,51.01
2018-05-12T12:58:28.418Z,50.88
2018-05-12T13:00:54.311Z,50.60
2018-05-12T13:03:20.355Z,50.93
2018-05-12T13:05:46.351Z,50.89
2018-05-12T13:08:12.367Z,50.98
2018-05-12T13:10:38.433Z,50.80
2018-05-12T13:13:04.445Z,50.52
2018-05-12T13:15:30.477Z,50.73
2018-05-12T13:17:56.470Z,50.84
2018-05-12T13:20:22.412Z,51.02
2018-05-12T13:22:48.422Z,50.92
2018-05-12T13:25:14.490Z,50.65
2018-05-12T13:27:40.473Z,51.09
2018-05-12T13:30:06.471Z,50.92
2018-05-12T13:32:32.447Z,50.95
2018-05-12T13:34:58.469Z,50.83
2018-05-12T13:37:24.443Z,50.70
2018-05-12T13:39:50.418Z,50.88
2018-05-12T13:42:16.403Z,50.82
2018-05-12T13:44:42.403Z,50.05
2018-05-12T13:47:08.407Z,50.42
2018-05-12T13:49:34.389Z,50.60
2018-05-12T13:52:00.401Z,50.30
2018-05-12T13:54:26.393Z,50.73
2018-05-12T13:56:52.368Z,50.57
2018-05-12T13:59:18.344Z,51.01
2018-05-12T14:01:44.328Z,51.29
2018-05-12T14:04:10.347Z,50.86
2018-05-12T14:06:36.319Z,51.10
2018-05-12T14:09:02.380Z,51.07
2018-05-12T14:11:28.342Z,51.11
2018-05-12T14:13:54.331Z,51.14
2018-05-12T14:16:20.361Z,51.19
2018-05-12T14:18:46.374Z,51.18
2018-05-12T14:21:12.328Z,51.28
2018-05-12T14:23:38.392Z,51.25
2018-05-12T14:26:04.323Z,51.34
2018-05-12T14:28:30.304Z,51.20
2018-05-12T14:30:56.318Z,50.71
2018-05-12T14:33:22.299Z,51.28
2018-05-12T14:35:48.354Z,51.14
2018-05-12T14:38:14.288Z,51.26
2018-05-12T14:40:40.306Z,51.25
2018-05-12T14:43:06.321Z,51.28
2018-05-12T14:45:32.275Z,50.95
2018-05-12T14:47:58.318Z,51.00
2018-05-12T14:50:24.270Z,50.40
2018-05-12T14:52:50.247Z,50.95
2018-05-12T14:55:16.246Z,50.93
2018-05-12T14:57:42.275Z,50.69
2018-05-12T15:00:08.224Z,50.87
2018-05-12T15:02:34.255Z,50.36
2018-05-12T15:05:00.241Z,50.69
2018-05-12T15:07:26.384Z,50.87
2018-05-12T15:09:52.460Z,50.68
2018-05-12T15:12:18.468Z,50.48
2018-05-12T15:14:44.617Z,50.55
2018-05-12T15:17:10.530Z,50.60
2018-05-12T15:19:36.665Z,50.58
2018-05-12T15:22:03.112Z,50.49
2018-05-12T15:24:29.624Z,50.77
2018-05-12T15:26:55.657Z,50.65
2018-05-12T15:29:21.627Z,50.60
2018-05-12T15:31:47.608Z,50.76
2018-05-12T15:34:14.362Z,50.78
2018-05-12T15:36:40.312Z,50.41
2018-05-12T15:39:06.304Z,50.81
2018-05-12T15:41:32.495Z,50.56
2018-05-12T15:43:58.518Z,50.84
2018-05-12T15:46:24.455Z,50.70
2018-05-12T15:48:51.920Z,50.40
2018-05-12T15:51:19.211Z,50.83
2018-05-12T15:53:45.198Z,50.82
2018-05-12T15:56:11.141Z,50.79
2018-05-12T15:58:37.969Z,50.67
2018-05-12T16:01:04.753Z,50.77
2018-05-12T16:03:30.877Z,50.91
2018-05-12T16:05:56.870Z,50.72
2018-05-12T16:08:23.836Z,50.41
2018-05-12T16:10:49.816Z,50.29
2018-05-12T16:13:15.804Z,50.77
2018-05-12T16:15:41.834Z,50.69
2018-05-12T16:18:07.817Z,50.41
2018-05-12T16:20:34.472Z,50.86
2018-05-12T16:23:03.426Z,50.92
2018-05-12T16:25:29.422Z,50.86
2018-05-12T16:27:55.439Z,50.58
2018-05-12T16:30:21.415Z,50.46
2018-05-12T16:32:47.726Z,50.82
2018-05-12T16:35:13.672Z,50.96
2018-05-12T16:37:40.243Z,50.85
2018-05-12T16:40:06.298Z,50.38
2018-05-12T16:42:32.303Z,50.50
2018-05-12T16:44:58.284Z,50.78
2018-05-12T16:47:24.260Z,51.03
2018-05-12T16:49:50.270Z,50.79
2018-05-12T16:52:16.257Z,50.89
2018-05-12T16:54:42.306Z,50.81
2018-05-12T16:57:08.287Z,50.59
2018-05-12T16:59:34.269Z,50.63
2018-05-12T17:02:00.412Z,50.21
2018-05-12T17:04:26.400Z,50.35
2018-05-12T17:06:52.415Z,50.51
2018-05-12T17:09:18.394Z,50.35
2018-05-12T17:11:44.352Z,50.70
2018-05-12T17:14:10.363Z,50.35
2018-05-12T17:16:36.312Z,50.29
2018-05-12T17:19:02.326Z,50.19
2018-05-12T17:21:28.311Z,50.26
2018-05-12T17:23:54.306Z,50.23
2018-05-12T17:26:20.327Z,51.33
2018-05-12T17:28:46.303Z,51.20
2018-05-12T17:31:12.253Z,51.71
2018-05-12T17:33:38.247Z,52.19
2018-05-12T17:36:04.239Z,51.72
2018-05-12T17:38:30.256Z,51.87
2018-05-12T17:40:56.243Z,51.61
2018-05-12T17:43:22.200Z,51.38
2018-05-12T17:45:48.193Z,51.63
2018-05-12T17:48:14.201Z,51.40
2018-05-12T17:50:40.187Z,52.43
2018-05-12T17:53:06.188Z,52.15
2018-05-12T17:55:32.165Z,51.92
2018-05-12T17:57:58.141Z,51.81
2018-05-12T18:00:24.119Z,52.28
2018-05-12T18:02:50.136Z,52.41
2018-05-12T18:05:16.119Z,51.84
2018-05-12T18:07:42.181Z,52.95
2018-05-12T18:10:08.131Z,53.05
2018-05-12T18:12:34.111Z,52.68
2018-05-12T18:15:00.096Z,52.02
2018-05-12T18:17:26.091Z,52.67
2018-05-12T18:19:52.111Z,52.56
2018-05-12T18:22:18.127Z,52.87
2018-05-12T18:24:44.257Z,53.00
2018-05-12T18:27:10.291Z,52.82
2018-05-12T18:29:36.305Z,53.06
2018-05-12T18:32:02.248Z,52.73
2018-05-12T18:34:28.225Z,52.80
2018-05-12T18:36:54.328Z,52.71
2018-05-12T18:39:20.338Z,52.75
2018-05-12T18:41:46.363Z,52.79
2018-05-12T18:44:12.368Z,52.35
2018-05-12T18:46:38.343Z,52.39
2018-05-12T18:49:04.323Z,52.88
2018-05-12T18:51:30.305Z,52.96
2018-05-12T18:53:56.363Z,52.37
2018-05-12T18:56:22.316Z,52.74
2018-05-12T18:58:48.334Z,52.57
2018-05-12T19:01:14.349Z,52.58
2018-05-12T19:03:40.351Z,52.80
2018-05-12T19:06:06.406Z,52.64
2018-05-12T19:08:32.365Z,52.35
2018-05-12T19:10:58.356Z,52.17
2018-05-12T19:13:24.335Z,52.72
2018-05-12T19:15:50.324Z,52.38
2018-05-12T19:18:16.320Z,52.67
2018-05-12T19:20:42.305Z,52.38
2018-05-12T19:23:08.300Z,52.62
2018-05-12T19:25:34.285Z,52.74
2018-05-12T19:28:00.273Z,52.50
2018-05-12T19:30:26.262Z,52.31
2018-05-12T19:32:52.304Z,52.57
2018-05-12T19:35:18.231Z,52.50
2018-05-12T19:37:44.222Z,52.20
2018-05-12T19:40:10.236Z,52.64
2018-05-12T19:42:36.186Z,52.44
2018-05-12T19:45:02.192Z,52.35
2018-05-12T19:47:28.166Z,52.19
2018-05-12T19:49:54.177Z,52.25
2018-05-12T19:52:20.130Z,52.29
2018-05-12T19:54:46.116Z,51.98
2018-05-12T19:57:12.104Z,52.37
2018-05-12T19:59:38.122Z,52.44
2018-05-12T20:02:04.142Z,52.32
2018-05-12T20:04:30.085Z,52.12
2018-05-12T20:06:56.072Z,52.18
2018-05-12T20:09:22.057Z,52.15
2018-05-12T20:11:48.048Z,52.19
2018-05-12T20:14:14.030Z,51.96
2018-05-12T20:16:40.022Z,51.79
2018-05-12T20:19:06.008Z,52.36
2018-05-12T20:21:32.037Z,51.91
2018-05-12T20:23:58.031Z,52.26
2018-05-12T20:26:24.044Z,52.23
2018-05-12T20:28:50.066Z,52.10
2018-05-12T20:31:16.021Z,51.79
2018-05-12T20:33:42.032Z,51.72
2018-05-12T20:36:08.045Z,52.02
2018-05-12T20:38:33.996Z,51.54
2018-05-12T20:41:00.007Z,51.76
2018-05-12T20:43:26.022Z,51.85
2018-05-12T20:45:51.968Z,51.66
2018-05-12T20:48:17.979Z,51.75
2018-05-12T20:50:43.938Z,51.84
2018-05-12T20:53:09.959Z,51.65
2018-05-12T20:55:35.924Z,51.40
2018-05-12T20:58:01.976Z,51.50
2018-05-12T21:00:27.968Z,51.72
2018-05-12T21:02:53.957Z,51.67
2018-05-12T21:05:20.051Z,51.55
2018-05-12T21:07:45.988Z,51.25
2018-05-12T21:10:11.967Z,51.49
2018-05-12T21:12:37.963Z,51.39
2018-05-12T21:15:03.991Z,51.32
2018-05-12T21:17:29.985Z,51.44
2018-05-12T21:19:56.006Z,51.34
2018-05-12T21:22:21.995Z,51.10
2018-05-12T21:24:47.966Z,51.10
2018-05-12T21:27:13.925Z,51.23
2018-05-12T21:29:39.916Z,51.08
2018-05-12T21:32:05.903Z,50.93
2018-05-12T21:34:31.886Z,50.83
2018-05-12T21:36:57.903Z,51.05
2018-05-12T21:39:23.868Z,51.04
2018-05-12T21:41:49.877Z,50.98
2018-05-12T21:44:15.884Z,50.91
2018-05-12T21:46:41.878Z,51.11
2018-05-12T21:49:07.859Z,51.01
2018-05-12T21:51:33.830Z,51.00
2018-05-12T21:53:59.814Z,50.71
2018-05-12T21:56:25.805Z,50.66
2018-05-12T21:58:51.832Z,50.66
2018-05-12T22:01:17.766Z,50.78
2018-05-12T22:03:43.747Z,50.64
2018-05-12T22:06:09.731Z,50.55
2018-05-12T22:08:35.736Z,50.54
2018-05-12T22:11:01.718Z,50.65
2018-05-12T22:13:27.702Z,50.52
2018-05-12T22:15:53.682Z,50.70
2018-05-12T22:18:19.689Z,50.67
2018-05-12T22:20:45.635Z,50.50
2018-05-12T22:23:11.652Z,50.53
2018-05-12T22:25:37.717Z,50.45
2018-05-12T22:28:03.697Z,50.58
2018-05-12T22:30:29.724Z,50.32
2018-05-12T22:32:55.646Z,50.49
2018-05-12T22:35:21.636Z,50.42
2018-05-12T22:37:47.639Z,50.37
2018-05-12T22:40:13.583Z,50.42
2018-05-12T22:42:39.570Z,50.28
2018-05-12T22:45:05.554Z,50.32
2018-05-12T22:47:31.525Z,50.28
2018-05-12T22:49:57.519Z,50.33
2018-05-12T22:52:23.532Z,50.27
2018-05-12T22:54:49.528Z,50.28
2018-05-12T22:57:15.488Z,50.24
2018-05-12T22:59:41.510Z,50.24
2018-05-12T23:02:07.470Z,50.20
2018-05-12T23:04:33.475Z,50.11
2018-05-12T23:06:59.458Z,50.13
2018-05-12T23:09:25.454Z,49.97
2018-05-12T23:11:51.473Z,50.14
2018-05-12T23:14:17.486Z,50.12
2018-05-12T23:16:43.426Z,49.96
2018-05-12T23:19:09.440Z,49.88
2018-05-12T23:21:35.422Z,49.98
2018-05-12T23:24:01.373Z,49.94
2018-05-12T23:26:27.354Z,49.87
2018-05-12T23:28:53.329Z,49.98
2018-05-12T23:31:19.352Z,49.89
2018-05-12T23:33:45.311Z,49.88
2018-05-12T23:36:11.320Z,49.91
2018-05-12T23:38:37.284Z,49.81
2018-05-12T23:41:03.290Z,49.83
2018-05-12T23:43:29.293Z,49.83
2018-05-12T23:45:55.294Z,49.84
2018-05-12T23:48:21.290Z,49.72
2018-05-12T23:50:47.289Z,49.75
2018-05-12T23:53:13.287Z,49.80
2018-05-12T23:55:39.285Z,49.74
2018-05-12T23:58:05.304Z,49.74
